createdAt,value
2023-04-23T00:01:12.728Z,9.03
2023-04-23T00:03:46.647Z,10.40
2023-04-23T00:06:20.131Z,10.25
2023-04-23T00:08:57.424Z,11.45
2023-04-23T00:11:31.487Z,9.03
2023-04-23T00:14:04.970Z,9.35
2023-04-23T00:16:40.590Z,12.88
2023-04-23T00:19:13.458Z,7.67
2023-04-23T00:21:48.611Z,10.67
2023-04-23T00:24:22.650Z,11.90
2023-04-23T00:26:55.512Z,11.12
2023-04-23T00:29:28.446Z,12.20
2023-04-23T00:32:02.202Z,9.28
2023-04-23T00:34:35.143Z,11.25
2023-04-23T00:37:08.264Z,8.63
2023-04-23T00:39:41.428Z,11.18
2023-04-23T00:42:16.605Z,13.87
2023-04-23T00:44:49.852Z,15.18
2023-04-23T00:47:24.187Z,13.05
2023-04-23T00:49:58.213Z,16.32
2023-04-23T00:52:32.645Z,11.55
2023-04-23T00:55:06.020Z,14.15
2023-04-23T00:57:40.448Z,11.95
2023-04-23T01:00:14.940Z,11.67
2023-04-23T01:02:48.364Z,13.35
2023-04-23T01:05:22.568Z,12.73
2023-04-23T01:10:28.170Z,14.33
2023-04-23T01:13:01.468Z,15.43
2023-04-23T01:15:34.839Z,11.33
2023-04-23T01:18:11.228Z,12.63
2023-04-23T01:20:44.412Z,13.00
2023-04-23T01:23:18.302Z,12.85
2023-04-23T01:25:51.719Z,13.38
2023-04-23T01:28:24.718Z,19.60
2023-04-23T01:30:57.976Z,10.00
2023-04-23T01:33:31.603Z,16.77
2023-04-23T01:36:04.993Z,11.63
2023-04-23T01:38:39.563Z,11.93
2023-04-23T01:43:45.035Z,13.78
2023-04-23T01:46:18.023Z,11.60
2023-04-23T01:48:51.343Z,14.18
2023-04-23T01:51:25.972Z,13.73
2023-04-23T01:53:59.072Z,11.10
2023-04-23T01:56:33.600Z,11.90
2023-04-23T01:59:07.648Z,12.93
2023-04-23T02:01:48.465Z,12.55
2023-04-23T02:04:21.917Z,11.60
2023-04-23T02:06:56.777Z,13.28
2023-04-23T02:09:30.040Z,16.62
2023-04-23T02:12:04.795Z,12.35
2023-04-23T02:14:38.414Z,11.75
2023-04-23T02:17:12.814Z,15.13
2023-04-23T02:22:18.903Z,11.00
2023-04-23T02:24:52.969Z,15.38
2023-04-23T02:27:26.047Z,11.65
2023-04-23T02:29:58.952Z,10.08
2023-04-23T02:32:31.925Z,12.88
2023-04-23T02:35:07.724Z,14.47
2023-04-23T02:37:41.042Z,12.40
2023-04-23T02:40:14.575Z,12.45
2023-04-23T02:42:47.596Z,11.78
2023-04-23T02:45:21.518Z,10.35
2023-04-23T02:47:56.475Z,13.28
2023-04-23T02:50:29.608Z,9.00
2023-04-23T02:53:02.402Z,12.30
2023-04-23T02:55:35.740Z,10.68
2023-04-23T02:58:08.869Z,12.13
2023-04-23T03:00:42.555Z,10.53
2023-04-23T03:03:16.255Z,9.88
2023-04-23T03:05:49.553Z,11.65
2023-04-23T03:08:23.411Z,11.35
2023-04-23T03:10:56.768Z,11.33
2023-04-23T03:13:30.414Z,8.75
2023-04-23T03:16:03.490Z,9.43
2023-04-23T03:18:37.930Z,8.00
2023-04-23T03:21:12.737Z,9.20
2023-04-23T03:23:45.798Z,8.83
2023-04-23T03:26:18.943Z,13.08
2023-04-23T03:28:52.233Z,12.30
2023-04-23T03:31:25.998Z,8.77
2023-04-23T03:33:58.942Z,7.87
2023-04-23T03:36:33.990Z,10.75
2023-04-23T03:39:08.135Z,11.60
2023-04-23T03:41:42.905Z,11.65
2023-04-23T03:44:16.550Z,12.90
2023-04-23T03:46:52.621Z,11.63
2023-04-23T03:49:27.756Z,6.97
2023-04-23T03:52:00.872Z,16.90
2023-04-23T03:54:34.679Z,9.95
2023-04-23T03:57:12.176Z,10.55
2023-04-23T03:59:46.760Z,10.20
2023-04-23T04:02:19.890Z,8.33
2023-04-23T04:04:55.438Z,8.55
2023-04-23T04:07:29.904Z,9.90
2023-04-23T04:10:03.475Z,11.10
2023-04-23T04:12:37.395Z,8.48
2023-04-23T04:15:13.062Z,9.25
2023-04-23T04:17:46.361Z,7.72
2023-04-23T04:20:19.286Z,12.00
2023-04-23T04:22:52.146Z,11.25
2023-04-23T04:25:25.305Z,17.20
2023-04-23T04:27:58.238Z,10.23
2023-04-23T04:30:31.129Z,12.78
2023-04-23T04:33:04.070Z,14.68
2023-04-23T04:35:37.274Z,14.10
2023-04-23T04:38:10.334Z,13.17
2023-04-23T04:40:43.321Z,14.05
2023-04-23T04:43:16.961Z,11.85
2023-04-23T04:45:49.873Z,10.63
2023-04-23T04:48:23.325Z,14.40
2023-04-23T04:50:56.725Z,21.15
2023-04-23T04:53:29.910Z,18.45
2023-04-23T04:56:02.758Z,19.02
2023-04-23T04:58:35.822Z,9.93
2023-04-23T05:01:09.780Z,10.82
2023-04-23T05:03:42.835Z,11.60
2023-04-23T05:06:16.195Z,13.22
2023-04-23T05:08:49.536Z,15.00
2023-04-23T05:11:22.863Z,11.53
2023-04-23T05:13:56.347Z,10.85
2023-04-23T05:16:29.169Z,16.87
2023-04-23T05:19:02.153Z,16.95
2023-04-23T05:21:35.094Z,17.12
2023-04-23T05:24:08.083Z,17.20
2023-04-23T05:26:41.463Z,18.10
2023-04-23T05:29:15.962Z,17.48
2023-04-23T05:31:48.838Z,20.05
2023-04-23T05:34:21.859Z,20.00
2023-04-23T05:36:54.785Z,23.42
2023-04-23T05:39:28.052Z,23.95
2023-04-23T05:42:00.897Z,18.92
2023-04-23T05:44:34.438Z,12.03
2023-04-23T05:47:07.695Z,14.00
2023-04-23T05:49:42.468Z,11.68
2023-04-23T05:52:15.597Z,14.25
2023-04-23T05:54:48.506Z,17.17
2023-04-23T05:57:21.324Z,12.68
2023-04-23T05:59:54.174Z,12.70
2023-04-23T06:02:29.115Z,12.68
2023-04-23T06:05:02.777Z,9.95
2023-04-23T06:07:36.885Z,12.90
2023-04-23T06:10:11.166Z,11.20
2023-04-23T06:12:44.321Z,10.43
2023-04-23T06:15:17.353Z,15.85
2023-04-23T06:17:50.311Z,12.88
2023-04-23T06:20:24.047Z,17.42
2023-04-23T06:22:56.955Z,26.20
2023-04-23T06:25:29.930Z,17.52
2023-04-23T06:28:02.766Z,15.53
2023-04-23T06:30:37.765Z,15.83
2023-04-23T06:33:11.156Z,15.83
2023-04-23T06:35:44.207Z,12.57
2023-04-23T06:38:18.961Z,13.45
2023-04-23T06:40:52.020Z,17.60
2023-04-23T06:43:25.569Z,11.00
2023-04-23T06:46:17.076Z,16.40
2023-04-23T06:48:50.136Z,10.55
2023-04-23T06:51:23.126Z,16.30
2023-04-23T06:53:56.280Z,14.13
2023-04-23T06:56:29.477Z,11.18
2023-04-23T06:59:02.279Z,14.80
2023-04-23T07:01:36.848Z,12.80
2023-04-23T07:04:09.842Z,20.70
2023-04-23T07:06:42.891Z,23.02
2023-04-23T07:09:15.972Z,18.32
2023-04-23T07:11:48.915Z,28.87
2023-04-23T07:14:21.652Z,20.75
2023-04-23T07:16:54.904Z,10.23
2023-04-23T07:19:28.242Z,15.10
2023-04-23T07:22:01.259Z,12.95
2023-04-23T07:24:34.470Z,11.10
2023-04-23T07:27:08.990Z,9.08
2023-04-23T07:29:42.008Z,9.93
2023-04-23T07:32:15.320Z,10.55
2023-04-23T07:34:48.190Z,11.15
2023-04-23T07:37:22.033Z,8.98
2023-04-23T07:39:54.879Z,12.00
2023-04-23T07:42:28.330Z,6.87
2023-04-23T07:45:01.251Z,8.30
2023-04-23T07:47:34.361Z,13.05
2023-04-23T07:50:08.873Z,7.20
2023-04-23T07:52:42.435Z,9.13
2023-04-23T07:55:16.276Z,13.08
2023-04-23T07:57:49.036Z,11.48
2023-04-23T08:00:21.999Z,11.30
2023-04-23T08:02:56.469Z,11.30
2023-04-23T08:05:29.564Z,12.60
2023-04-23T08:08:02.521Z,24.95
2023-04-23T08:10:38.955Z,14.60
2023-04-23T08:13:12.073Z,10.85
2023-04-23T08:15:44.977Z,12.82
2023-04-23T08:18:18.199Z,13.50
2023-04-23T08:20:51.381Z,12.63
2023-04-23T08:23:24.831Z,12.33
2023-04-23T08:25:57.604Z,11.63
2023-04-23T08:28:31.372Z,9.25
2023-04-23T08:31:15.088Z,14.35
2023-04-23T08:33:40.466Z,7.03
2023-04-23T08:36:14.900Z,9.20
2023-04-23T08:38:48.110Z,21.73
2023-04-23T08:41:22.830Z,23.30
2023-04-23T08:44:08.975Z,8.58
2023-04-23T08:46:45.081Z,12.78
2023-04-23T08:49:20.262Z,12.10
2023-04-23T08:51:55.391Z,7.92
2023-04-23T08:54:29.992Z,8.75
2023-04-23T08:57:02.782Z,8.45
2023-04-23T08:59:36.364Z,11.93
2023-04-23T09:02:10.984Z,13.10
2023-04-23T09:04:44.289Z,7.30
2023-04-23T09:07:17.981Z,8.13
2023-04-23T09:09:51.243Z,10.78
2023-04-23T09:12:24.859Z,9.30
2023-04-23T09:14:57.945Z,7.92
2023-04-23T09:17:31.756Z,10.70
2023-04-23T09:20:06.414Z,8.58
2023-04-23T09:22:52.881Z,13.43
2023-04-23T09:25:26.331Z,8.93
2023-04-23T09:28:02.657Z,12.20
2023-04-23T09:30:46.504Z,13.20
2023-04-23T09:33:20.024Z,9.95
2023-04-23T09:35:52.759Z,8.08
2023-04-23T09:38:25.903Z,9.25
2023-04-23T09:40:59.031Z,7.28
2023-04-23T09:43:35.377Z,9.73
2023-04-23T09:46:08.326Z,13.50
2023-04-23T09:48:45.100Z,10.73
2023-04-23T09:51:17.960Z,11.00
2023-04-23T09:53:50.946Z,13.68
2023-04-23T09:56:23.945Z,12.37
2023-04-23T09:58:56.764Z,10.25
2023-04-23T10:01:32.948Z,20.75
2023-04-23T10:04:06.379Z,15.35
2023-04-23T10:06:47.076Z,13.23
2023-04-23T10:11:46.391Z,6.65
2023-04-23T10:14:19.749Z,18.52
2023-04-23T10:17:01.379Z,14.27
2023-04-23T10:19:35.841Z,9.95
2023-04-23T10:22:19.477Z,15.88
2023-04-23T10:24:49.480Z,10.18
2023-04-23T10:27:33.430Z,17.92
2023-04-23T10:30:00.714Z,14.13
2023-04-23T10:32:36.084Z,10.70
2023-04-23T10:35:10.979Z,14.93
2023-04-23T10:37:44.255Z,17.27
2023-04-23T10:40:22.232Z,13.90
2023-04-23T10:42:55.918Z,10.72
2023-04-23T10:45:32.947Z,7.28
2023-04-23T10:48:06.241Z,10.25
2023-04-23T10:50:57.632Z,9.33
2023-04-23T10:53:22.571Z,8.48
2023-04-23T10:56:09.594Z,13.98
2023-04-23T10:58:52.908Z,10.43
2023-04-23T11:01:33.627Z,9.93
2023-04-23T11:04:29.350Z,14.25
2023-04-23T11:07:10.947Z,12.78
2023-04-23T11:09:47.316Z,10.82
2023-04-23T11:12:33.008Z,11.80
2023-04-23T11:15:17.791Z,9.15
2023-04-23T11:17:58.167Z,14.28
2023-04-23T11:20:31.193Z,13.22
2023-04-23T11:23:04.164Z,11.95
2023-04-23T11:25:38.113Z,9.93
2023-04-23T11:28:11.351Z,12.98
2023-04-23T11:30:44.520Z,7.00
2023-04-23T11:33:17.413Z,9.98
2023-04-23T11:35:50.825Z,13.48
2023-04-23T11:38:24.275Z,11.73
2023-04-23T11:40:58.196Z,13.80
2023-04-23T11:43:31.128Z,12.18
2023-04-23T11:46:04.178Z,9.05
2023-04-23T11:48:37.690Z,11.00
2023-04-23T11:51:10.915Z,7.33
2023-04-23T11:53:49.335Z,10.30
2023-04-23T11:56:22.294Z,14.68
2023-04-23T11:59:04.012Z,9.55
2023-04-23T12:01:49.739Z,11.28
2023-04-23T12:04:29.136Z,10.28
2023-04-23T12:07:07.999Z,18.23
2023-04-23T12:09:38.450Z,14.95
2023-04-23T12:12:11.562Z,17.10
2023-04-23T12:14:44.528Z,16.65
2023-04-23T12:17:17.695Z,14.83
2023-04-23T12:19:51.378Z,13.53
2023-04-23T12:22:29.188Z,9.18
2023-04-23T12:25:06.974Z,19.75
2023-04-23T12:27:45.519Z,6.35
2023-04-23T12:30:19.466Z,11.48
2023-04-23T12:32:52.443Z,9.35
2023-04-23T12:35:44.543Z,12.35
2023-04-23T12:38:28.307Z,17.00
2023-04-23T12:41:02.210Z,11.48
2023-04-23T12:43:36.248Z,20.25
2023-04-23T12:46:09.481Z,10.20
2023-04-23T12:48:42.269Z,13.20
2023-04-23T12:51:15.117Z,12.40
2023-04-23T12:53:48.953Z,15.18
2023-04-23T12:56:22.740Z,13.78
2023-04-23T12:58:56.124Z,9.98
2023-04-23T13:01:29.516Z,15.28
2023-04-23T13:04:02.357Z,14.17
2023-04-23T13:06:35.496Z,21.27
2023-04-23T13:09:11.661Z,14.05
2023-04-23T13:11:46.575Z,14.03
2023-04-23T13:16:52.919Z,14.07
2023-04-23T13:19:27.006Z,10.38
2023-04-23T13:21:59.933Z,20.37
2023-04-23T13:24:33.600Z,17.50
2023-04-23T13:27:06.757Z,12.33
2023-04-23T13:29:41.702Z,7.43
2023-04-23T13:32:16.348Z,14.90
2023-04-23T13:34:51.041Z,9.15
2023-04-23T13:37:24.805Z,15.05
2023-04-23T13:39:57.746Z,13.10
2023-04-23T13:42:30.689Z,11.18
2023-04-23T13:45:05.844Z,10.43
2023-04-23T13:47:38.783Z,10.50
2023-04-23T13:50:12.530Z,8.58
2023-04-23T13:52:45.654Z,11.05
2023-04-23T13:55:18.828Z,9.95
2023-04-23T13:57:51.750Z,14.10
2023-04-23T14:00:25.431Z,11.35
2023-04-23T14:02:58.992Z,8.63
2023-04-23T14:05:32.741Z,10.98
2023-04-23T14:08:06.100Z,10.98
2023-04-23T14:10:43.053Z,9.25
2023-04-23T14:13:15.988Z,7.22
2023-04-23T14:15:49.200Z,7.62
2023-04-23T14:18:22.103Z,37.83
2023-04-23T14:20:55.574Z,29.37
2023-04-23T14:23:48.934Z,9.73
2023-04-23T14:26:44.909Z,10.20
2023-04-23T14:29:09.536Z,10.72
2023-04-23T14:31:42.303Z,8.68
2023-04-23T14:34:15.087Z,7.42
2023-04-23T14:36:49.505Z,10.13
2023-04-23T14:39:27.136Z,11.10
2023-04-23T14:42:00.120Z,10.60
2023-04-23T14:44:33.171Z,9.80
2023-04-23T14:47:07.954Z,13.58
2023-04-23T14:49:42.238Z,6.25
2023-04-23T14:52:15.630Z,7.30
2023-04-23T14:54:48.868Z,6.92
2023-04-23T14:57:22.117Z,8.25
2023-04-23T14:59:54.836Z,7.35
2023-04-23T15:02:29.501Z,5.15
2023-04-23T15:05:02.980Z,7.35
2023-04-23T15:07:38.463Z,6.97
2023-04-23T15:10:12.490Z,9.10
2023-04-23T15:15:49.920Z,9.00
2023-04-23T15:18:23.527Z,7.15
2023-04-23T15:20:57.022Z,12.18
2023-04-23T15:23:31.021Z,11.23
2023-04-23T15:26:03.943Z,7.45
2023-04-23T15:28:37.323Z,6.83
2023-04-23T15:31:10.232Z,10.65
2023-04-23T15:33:43.221Z,6.20
2023-04-23T15:36:16.467Z,6.08
2023-04-23T15:38:49.696Z,8.87
2023-04-23T15:41:22.869Z,6.47
2023-04-23T15:43:55.957Z,8.53
2023-04-23T15:46:28.997Z,5.85
2023-04-23T15:49:03.557Z,7.28
2023-04-23T15:51:37.081Z,6.55
2023-04-23T15:54:10.270Z,7.67
2023-04-23T15:56:43.231Z,4.83
2023-04-23T15:59:16.223Z,4.25
2023-04-23T16:01:49.870Z,8.73
2023-04-23T16:04:22.907Z,6.85
2023-04-23T16:06:55.973Z,4.97
2023-04-23T16:09:29.079Z,4.58
2023-04-23T16:12:02.385Z,5.50
2023-04-23T16:14:36.143Z,4.30
2023-04-23T16:17:09.580Z,5.17
2023-04-23T16:19:43.107Z,3.90
2023-04-23T16:22:17.793Z,6.80
2023-04-23T16:27:22.864Z,5.97
2023-04-23T16:29:55.912Z,5.50
2023-04-23T16:32:28.935Z,6.35
2023-04-23T16:35:02.454Z,5.33
2023-04-23T16:37:35.732Z,4.13
2023-04-23T16:40:10.685Z,5.70
2023-04-23T16:42:44.493Z,5.30
2023-04-23T16:45:17.600Z,5.22
2023-04-23T16:47:53.250Z,6.67
2023-04-23T16:50:26.313Z,6.22
2023-04-23T16:52:59.772Z,11.30
2023-04-23T16:55:33.170Z,11.00
2023-04-23T16:58:06.732Z,9.90
2023-04-23T17:00:39.900Z,9.95
2023-04-23T17:03:13.224Z,13.72
2023-04-23T17:05:46.545Z,15.77
2023-04-23T17:08:19.753Z,21.55
2023-04-23T17:10:53.717Z,28.30
2023-04-23T17:13:28.036Z,24.00
2023-04-23T17:16:01.329Z,23.73
2023-04-23T17:18:34.507Z,20.10
2023-04-23T17:21:07.846Z,19.63
2023-04-23T17:23:41.180Z,22.27
2023-04-23T17:26:14.517Z,21.17
2023-04-23T17:28:47.945Z,19.70
2023-04-23T17:31:22.114Z,20.20
2023-04-23T17:33:56.475Z,16.37
2023-04-23T17:36:29.601Z,19.17
2023-04-23T17:39:03.073Z,16.42
2023-04-23T17:41:36.634Z,21.52
2023-04-23T17:44:09.904Z,19.47
2023-04-23T17:46:43.085Z,18.27
2023-04-23T17:49:16.001Z,22.32
2023-04-23T17:51:49.221Z,20.77
2023-04-23T17:54:22.196Z,22.85
2023-04-23T17:56:55.232Z,22.02
2023-04-23T17:59:28.268Z,21.15
2023-04-23T18:02:01.687Z,23.73
2023-04-23T18:04:36.349Z,26.82
2023-04-23T18:09:41.060Z,22.60
2023-04-23T18:12:14.135Z,23.55
2023-04-23T18:14:47.113Z,21.07
2023-04-23T18:17:20.225Z,20.60
2023-04-23T18:19:54.059Z,23.85
2023-04-23T18:22:27.071Z,30.12
2023-04-23T18:25:00.367Z,28.45
2023-04-23T18:27:34.405Z,26.37
2023-04-23T18:30:09.194Z,34.90
2023-04-23T18:32:51.505Z,29.52
2023-04-23T18:35:24.394Z,30.65
2023-04-23T18:38:08.046Z,31.90
2023-04-23T18:40:40.851Z,33.35
2023-04-23T18:43:13.728Z,32.63
2023-04-23T18:45:46.761Z,34.23
2023-04-23T18:48:31.755Z,36.33
2023-04-23T18:51:11.764Z,35.28
2023-04-23T18:53:46.367Z,33.78
2023-04-23T18:56:19.407Z,44.50
2023-04-23T18:58:52.281Z,38.25
2023-04-23T19:01:27.705Z,33.73
2023-04-23T19:04:01.195Z,42.50
2023-04-23T19:06:34.905Z,40.50
2023-04-23T19:09:08.403Z,37.45
2023-04-23T19:11:41.538Z,28.87
2023-04-23T19:14:16.067Z,33.63
2023-04-23T19:19:21.278Z,29.42
2023-04-23T19:21:54.303Z,27.73
2023-04-23T19:24:27.509Z,23.83
2023-04-23T19:27:01.223Z,27.70
2023-04-23T19:29:34.135Z,29.87
2023-04-23T19:32:06.993Z,25.97
2023-04-23T19:34:40.301Z,21.68
2023-04-23T19:37:13.210Z,23.10
2023-04-23T19:39:46.472Z,25.43
2023-04-23T19:42:22.056Z,26.00
2023-04-23T19:44:54.951Z,27.58
2023-04-23T19:47:27.814Z,24.23
2023-04-23T19:50:00.685Z,30.30
2023-04-23T19:52:33.948Z,25.65
2023-04-23T19:55:08.235Z,21.62
2023-04-23T20:00:14.671Z,22.30
2023-04-23T20:02:48.128Z,21.40
2023-04-23T20:05:22.499Z,27.13
2023-04-23T20:07:56.346Z,23.07
2023-04-23T20:10:30.933Z,20.27
2023-04-23T20:13:03.840Z,23.02
2023-04-23T20:15:37.110Z,21.30
2023-04-23T20:18:10.164Z,21.25
2023-04-23T20:20:43.251Z,21.12
2023-04-23T20:23:16.384Z,23.07
2023-04-23T20:25:50.041Z,19.42
2023-04-23T20:28:23.439Z,18.62
2023-04-23T20:30:56.841Z,20.77
2023-04-23T20:33:29.698Z,19.73
2023-04-23T20:36:02.833Z,16.95
2023-04-23T20:38:36.426Z,17.93
2023-04-23T20:41:10.798Z,20.92
2023-04-23T20:43:45.274Z,17.15
2023-04-23T20:46:18.768Z,16.70
2023-04-23T20:48:53.744Z,18.80
2023-04-23T20:51:28.695Z,16.60
2023-04-23T20:54:02.191Z,17.17
2023-04-23T20:56:35.232Z,13.60
2023-04-23T20:59:08.108Z,12.58
2023-04-23T21:01:41.574Z,12.53
2023-04-23T21:04:14.623Z,12.58
2023-04-23T21:06:51.375Z,13.63
2023-04-23T21:09:24.099Z,13.72
2023-04-23T21:11:58.774Z,12.58
2023-04-23T21:14:33.007Z,16.00
2023-04-23T21:17:06.164Z,15.43
2023-04-23T21:19:40.145Z,14.07
2023-04-23T21:22:13.596Z,19.02
2023-04-23T21:24:46.587Z,15.63
2023-04-23T21:27:22.170Z,16.07
2023-04-23T21:29:55.547Z,13.32
2023-04-23T21:32:28.725Z,14.50
2023-04-23T21:35:01.544Z,14.25
2023-04-23T21:37:36.399Z,11.78
2023-04-23T21:40:10.910Z,14.85
2023-04-23T21:42:45.920Z,12.47
2023-04-23T21:45:19.061Z,15.40
2023-04-23T21:47:52.168Z,15.37
2023-04-23T21:50:27.764Z,20.35
2023-04-23T21:53:02.771Z,14.65
2023-04-23T21:55:36.154Z,25.17
2023-04-23T21:58:17.331Z,16.37
2023-04-23T22:00:45.061Z,26.45
2023-04-23T22:03:30.851Z,15.03
2023-04-23T22:05:53.698Z,20.23
2023-04-23T22:08:27.223Z,18.50
2023-04-23T22:11:00.212Z,14.80
2023-04-23T22:13:33.412Z,18.35
2023-04-23T22:16:20.357Z,14.77
2023-04-23T22:18:42.760Z,12.07
2023-04-23T22:21:15.850Z,15.10
2023-04-23T22:23:49.117Z,14.73
2023-04-23T22:26:22.386Z,14.28
2023-04-23T22:28:55.503Z,13.60
2023-04-23T22:31:28.652Z,15.25
2023-04-23T22:34:02.104Z,12.82
2023-04-23T22:36:35.635Z,12.05
2023-04-23T22:39:10.354Z,15.20
2023-04-23T22:41:43.387Z,15.55
2023-04-23T22:44:16.302Z,14.25
2023-04-23T22:46:49.981Z,12.85
2023-04-23T22:49:23.194Z,14.10
2023-04-23T22:51:56.147Z,12.00
2023-04-23T22:54:29.571Z,14.20
2023-04-23T22:57:03.331Z,12.78
2023-04-23T22:59:39.167Z,13.40
2023-04-23T23:04:44.259Z,16.93
2023-04-23T23:07:17.413Z,15.47
2023-04-23T23:09:51.126Z,15.60
2023-04-23T23:12:23.947Z,15.83
2023-04-23T23:14:56.973Z,14.90
2023-04-23T23:17:30.136Z,19.60
2023-04-23T23:20:03.118Z,15.80
2023-04-23T23:22:37.727Z,16.20
2023-04-23T23:25:11.312Z,20.15
2023-04-23T23:27:44.274Z,20.40
2023-04-23T23:30:17.321Z,20.55
2023-04-23T23:32:50.633Z,23.73
2023-04-23T23:35:23.565Z,20.92
2023-04-23T23:37:56.954Z,21.73
2023-04-23T23:40:29.969Z,21.97
2023-04-23T23:43:03.216Z,22.77
2023-04-23T23:45:37.077Z,40.60
2023-04-23T23:48:10.169Z,59.58
2023-04-23T23:50:43.496Z,42.95
2023-04-23T23:53:16.623Z,35.73
2023-04-23T23:55:50.078Z,29.23
2023-04-23T23:58:23.454Z,27.40
